Time;durP1;ratioP1;P1;durP2;ratioP2;P2;SDS_P1;SDS_P2;PMS_P1;PMS_P2;Temp;Humidity;BMP_temperature;BMP_pressure;BME280_temperature;BME280_humidity;BME280_pressure;Samples;Min_cycle;Max_cycle;Signal;HPM_P1;HPM_P2
2023/08/17 00:01:44;;;;;;;3.40;2.40;;;;;;;21.35;61.61;101864.44;4995929;28;20041;-68
2023/08/17 00:04:09;;;;;;;5.13;2.35;;;;;;;21.37;61.76;101873.28;4998979;28;20440;-68
2023/08/17 00:06:35;;;;;;;4.95;2.60;;;;;;;21.37;61.36;101874.16;4997359;28;20099;-68
2023/08/17 00:09:00;;;;;;;2.60;2.17;;;;;;;21.33;63.83;101867.25;4993467;28;20536;-68
2023/08/17 00:11:26;;;;;;;8.77;2.65;;;;;;;21.32;62.25;101868.22;4985337;28;20118;-68
2023/08/17 00:13:51;;;;;;;4.05;2.30;;;;;;;21.29;61.46;101857.63;4984826;28;20465;-68
2023/08/17 00:16:16;;;;;;;5.03;2.17;;;;;;;21.21;61.32;101861.81;4994805;28;20034;-68
2023/08/17 00:18:42;;;;;;;4.25;2.25;;;;;;;21.19;61.35;101863.75;4989752;28;20030;-68
2023/08/17 00:21:07;;;;;;;3.40;2.17;;;;;;;21.13;62.74;101856.97;4991596;28;20436;-67
2023/08/17 00:23:32;;;;;;;3.20;2.15;;;;;;;21.09;62.91;101861.69;4993561;28;20054;-68
2023/08/17 00:25:58;;;;;;;2.95;1.88;;;;;;;21.01;61.71;101855.13;4994382;28;20076;-67
2023/08/17 00:28:24;;;;;;;3.28;2.45;;;;;;;21.03;61.99;101858.56;4985627;28;20025;-68
2023/08/17 00:30:50;;;;;;;4.32;2.15;;;;;;;20.97;61.64;101850.91;4992741;28;20038;-68
2023/08/17 00:33:16;;;;;;;8.32;2.65;;;;;;;20.94;63.03;101848.41;4991444;28;20034;-67
2023/08/17 00:35:41;;;;;;;3.35;2.40;;;;;;;20.90;62.27;101845.09;4989566;28;20022;-67
2023/08/17 00:38:06;;;;;;;3.80;2.17;;;;;;;20.84;62.79;101859.81;4993127;28;20021;-68
2023/08/17 00:40:31;;;;;;;4.57;2.20;;;;;;;20.80;62.84;101850.25;4990181;28;20121;-68
2023/08/17 00:42:57;;;;;;;7.05;2.33;;;;;;;20.75;62.51;101848.81;4989719;28;20540;-68
2023/08/17 00:45:23;;;;;;;2.60;2.35;;;;;;;20.70;62.56;101842.88;4985912;28;20026;-68
2023/08/17 00:47:49;;;;;;;3.88;2.03;;;;;;;20.68;62.25;101851.06;4987193;28;20049;-67
2023/08/17 00:50:15;;;;;;;2.35;2.05;;;;;;;20.67;62.66;101853.84;4992712;28;20027;-67
2023/08/17 00:52:41;;;;;;;3.35;2.17;;;;;;;20.62;63.17;101852.31;4985975;28;20121;-68
2023/08/17 00:55:07;;;;;;;7.82;2.42;;;;;;;20.60;63.18;101853.38;4991891;28;20097;-67
2023/08/17 00:57:33;;;;;;;2.72;2.25;;;;;;;20.59;63.00;101862.41;4990843;28;20076;-68
2023/08/17 00:59:59;;;;;;;3.25;1.90;;;;;;;20.56;63.08;101865.28;4987427;28;20026;-68
2023/08/17 01:02:25;;;;;;;4.80;2.22;;;;;;;20.55;63.50;101860.88;4995577;28;20040;-68
2023/08/17 01:04:50;;;;;;;3.13;2.03;;;;;;;20.54;63.49;101860.03;5013917;22;20077;-70
2023/08/17 01:07:15;;;;;;;5.47;2.38;;;;;;;20.52;63.20;101858.41;5006039;28;20045;-71
2023/08/17 01:09:42;;;;;;;5.00;2.28;;;;;;;20.51;64.77;101865.59;4991780;28;20064;-71
2023/08/17 01:12:24;;;;;;;4.55;2.72;;;;;;;20.48;63.66;101862.25;5002620;28;20072;-71
2023/08/17 01:14:52;;;;;;;6.70;2.50;;;;;;;20.44;64.14;101861.56;5005458;28;20036;-71
2023/08/17 01:18:00;;;;;;;3.33;2.42;;;;;;;20.46;64.35;101861.44;5007889;28;20030;-71
2023/08/17 01:20:26;;;;;;;5.00;2.55;;;;;;;20.35;65.42;101864.84;4991298;28;20034;-72
2023/08/17 01:22:56;;;;;;;8.57;2.85;;;;;;;20.30;65.14;101859.78;5011094;28;20403;-71
2023/08/17 01:25:22;;;;;;;4.63;2.50;;;;;;;20.32;65.14;101859.66;5009253;28;20045;-71
2023/08/17 01:27:47;;;;;;;4.43;2.67;;;;;;;20.32;66.41;101859.66;5006817;28;20513;-71
2023/08/17 01:30:15;;;;;;;5.82;2.55;;;;;;;20.30;65.55;101857.09;5005012;28;20033;-71
2023/08/17 01:33:08;;;;;;;4.78;2.75;;;;;;;20.37;65.54;101853.03;5002983;28;20034;-71
2023/08/17 01:35:38;;;;;;;4.57;2.55;;;;;;;20.28;65.12;101850.94;5003550;28;20030;-71
2023/08/17 01:38:07;;;;;;;4.40;2.63;;;;;;;20.25;65.81;101847.59;5015360;28;20510;-71
2023/08/17 01:40:33;;;;;;;7.72;2.90;;;;;;;20.22;65.47;101842.44;5010150;28;20026;-71
2023/08/17 01:43:01;;;;;;;4.88;2.47;;;;;;;20.17;65.87;101847.22;5007668;28;20362;-71
2023/08/17 01:45:26;;;;;;;5.38;2.67;;;;;;;20.09;65.73;101847.72;4992459;28;20049;-71
2023/08/17 01:47:52;;;;;;;5.07;3.00;;;;;;;20.11;65.98;101835.94;4986409;28;20509;-71
2023/08/17 01:50:17;;;;;;;7.40;3.33;;;;;;;20.20;65.79;101847.91;4992879;28;20026;-71
2023/08/17 01:52:42;;;;;;;6.55;2.50;;;;;;;20.19;65.77;101839.94;4994882;28;20053;-71
2023/08/17 01:55:08;;;;;;;6.43;2.80;;;;;;;20.14;66.72;101856.34;4993547;28;20496;-71
2023/08/17 01:57:35;;;;;;;4.47;3.00;;;;;;;20.13;66.41;101854.63;4988163;28;20452;-71
2023/08/17 02:00:00;;;;;;;5.38;2.83;;;;;;;20.15;66.19;101857.22;4993432;28;20797;-71
2023/08/17 02:02:26;;;;;;;7.22;2.58;;;;;;;20.13;66.23;101854.63;4998688;28;20033;-71
2023/08/17 02:04:51;;;;;;;5.03;2.90;;;;;;;20.05;66.58;101847.06;4996772;28;20164;-71
2023/08/17 02:07:16;;;;;;;7.10;2.58;;;;;;;20.08;66.46;101851.38;4991636;28;20509;-71
2023/08/17 02:09:42;;;;;;;3.92;2.67;;;;;;;20.04;66.53;101849.84;4996285;28;20030;-71
2023/08/17 02:12:08;;;;;;;6.43;2.47;;;;;;;19.95;66.97;101851.28;4991279;28;20022;-71
2023/08/17 02:14:33;;;;;;;6.47;2.70;;;;;;;19.91;67.01;101846.19;4988117;28;20058;-71
2023/08/17 02:16:59;;;;;;;6.05;2.97;;;;;;;19.92;66.75;101840.75;4985726;28;20034;-71
2023/08/17 02:19:24;;;;;;;6.82;2.90;;;;;;;19.88;66.29;101852.66;4989461;28;20153;-71
2023/08/17 02:21:49;;;;;;;4.03;2.50;;;;;;;19.88;66.15;101852.66;4993941;28;20504;-71
2023/08/17 02:24:14;;;;;;;6.82;2.80;;;;;;;19.87;65.84;101851.78;4995510;28;20066;-71
2023/08/17 02:26:40;;;;;;;3.42;2.47;;;;;;;19.87;65.61;101851.78;4994018;28;20389;-71
2023/08/17 02:29:05;;;;;;;4.75;2.55;;;;;;;19.85;65.50;101853.69;4992958;28;20038;-71
2023/08/17 02:31:30;;;;;;;3.80;2.50;;;;;;;19.84;66.21;101851.09;4990985;28;20034;-71
2023/08/17 02:34:00;;;;;;;4.30;2.40;;;;;;;19.80;66.77;101853.13;4991209;28;20050;-71
2023/08/17 02:36:26;;;;;;;3.35;2.33;;;;;;;19.78;65.72;101852.38;4996240;28;20032;-71
2023/08/17 02:38:51;;;;;;;4.38;2.33;;;;;;;19.80;66.49;101849.56;4997618;28;20532;-71
2023/08/17 02:41:16;;;;;;;6.70;2.60;;;;;;;19.86;65.74;101855.44;4998005;28;20030;-71
2023/08/17 02:43:42;;;;;;;6.13;2.70;;;;;;;19.92;65.28;101846.13;4986715;28;20049;-71
2023/08/17 02:46:07;;;;;;;4.25;2.38;;;;;;;19.96;65.03;101836.94;4994168;28;20484;-71
2023/08/17 02:48:33;;;;;;;5.30;2.88;;;;;;;19.97;66.19;101848.53;4998075;28;20037;-71
2023/08/17 02:50:58;;;;;;;4.03;2.55;;;;;;;19.99;64.64;101843.91;4993885;28;20037;-71
2023/08/17 02:53:23;;;;;;;4.07;2.47;;;;;;;19.96;65.58;101842.28;4997992;28;20034;-71
2023/08/17 02:55:49;;;;;;;3.97;2.40;;;;;;;19.96;65.85;101831.56;4987480;28;20069;-71
2023/08/17 02:58:14;;;;;;;2.95;2.13;;;;;;;19.97;64.73;101832.41;4996108;28;20441;-71
2023/08/17 03:00:39;;;;;;;7.05;2.58;;;;;;;19.99;64.42;101827.78;4987465;28;20032;-71
2023/08/17 03:03:05;;;;;;;3.47;2.03;;;;;;;19.99;64.65;101828.66;4988783;28;20384;-71
2023/08/17 03:05:30;;;;;;;3.72;2.03;;;;;;;19.97;66.03;101827.91;4981085;28;20065;-71
2023/08/17 03:07:55;;;;;;;6.50;2.40;;;;;;;19.94;65.42;101836.13;4995969;28;20076;-71
2023/08/17 03:10:21;;;;;;;5.07;2.55;;;;;;;19.92;64.83;101834.53;4998562;28;20018;-71
2023/08/17 03:12:46;;;;;;;5.55;2.15;;;;;;;19.85;64.79;101832.22;4997205;28;20029;-71
2023/08/17 03:15:11;;;;;;;3.60;2.20;;;;;;;19.83;64.70;101826.09;4996451;28;20036;-71
2023/08/17 03:17:37;;;;;;;4.10;2.30;;;;;;;19.84;64.13;101829.63;4999449;28;20044;-71
2023/08/17 03:20:04;;;;;;;5.68;2.30;;;;;;;19.82;65.13;101824.38;4996163;28;20036;-71
2023/08/17 03:22:30;;;;;;;3.92;2.05;;;;;;;19.81;63.98;101827.13;4994051;28;20030;-71
2023/08/17 03:24:55;;;;;;;6.13;2.20;;;;;;;19.80;65.04;101826.28;5003035;28;20122;-71
2023/08/17 03:27:20;;;;;;;3.25;1.95;;;;;;;19.82;64.21;101826.22;4991765;28;20092;-68
2023/08/17 03:29:46;;;;;;;4.53;2.08;;;;;;;19.82;64.06;101827.06;4992315;28;20220;-68
2023/08/17 03:32:11;;;;;;;3.38;2.45;;;;;;;19.78;64.19;101812.13;4991674;28;20058;-68
2023/08/17 03:34:36;;;;;;;4.57;2.10;;;;;;;19.65;65.97;101821.03;4994806;28;20022;-68
2023/08/17 03:37:03;;;;;;;5.28;2.25;;;;;;;19.62;64.33;101822.06;4976045;28;20428;-67
2023/08/17 03:39:28;;;;;;;4.25;2.22;;;;;;;19.60;64.92;101824.00;4983883;28;20505;-67
2023/08/17 03:41:54;;;;;;;3.20;1.85;;;;;;;19.57;65.45;101822.31;4993559;28;20157;-68
2023/08/17 03:44:19;;;;;;;3.25;2.05;;;;;;;19.59;65.24;101817.75;4970360;28;20027;-68
2023/08/17 03:46:44;;;;;;;3.95;1.95;;;;;;;19.58;65.61;101824.06;4992855;28;20026;-68
2023/08/17 03:49:09;;;;;;;3.85;2.20;;;;;;;19.54;64.48;101819.00;4995242;28;20037;-68
2023/08/17 03:51:35;;;;;;;4.65;2.33;;;;;;;19.57;64.91;101819.63;4991319;28;20022;-68
2023/08/17 03:54:00;;;;;;;3.47;2.22;;;;;;;19.59;65.25;101823.09;4999068;28;20036;-68
2023/08/17 03:56:25;;;;;;;3.55;1.88;;;;;;;19.61;65.68;101820.34;4995990;28;20029;-68
2023/08/17 03:58:53;;;;;;;6.13;2.28;;;;;;;19.61;66.36;101825.72;4996283;28;20026;-68
2023/08/17 04:01:18;;;;;;;5.15;2.13;;;;;;;19.60;66.13;101822.19;5000658;28;20105;-68
2023/08/17 04:03:43;;;;;;;3.75;2.03;;;;;;;19.60;65.33;101821.31;5000914;28;20165;-68
2023/08/17 04:06:10;;;;;;;3.30;1.90;;;;;;;19.64;66.16;101827.34;4991081;28;20042;-67
2023/08/17 04:08:38;;;;;;;3.30;2.40;;;;;;;19.61;65.81;101839.13;5000705;28;20026;-68
2023/08/17 04:11:05;;;;;;;3.80;2.00;;;;;;;19.56;65.75;101835.84;4995482;28;20038;-68
2023/08/17 04:13:31;;;;;;;5.57;2.65;;;;;;;19.51;66.12;101841.50;4992747;28;20030;-68
2023/08/17 04:15:56;;;;;;;5.97;2.55;;;;;;;19.45;66.17;101849.94;4992828;28;20374;-68
2023/08/17 04:18:21;;;;;;;6.47;2.42;;;;;;;19.44;67.55;101850.84;4992204;28;20417;-68
2023/08/17 04:20:47;;;;;;;5.20;2.90;;;;;;;19.44;68.22;101852.69;4987741;28;20523;-68
2023/08/17 04:23:12;;;;;;;10.90;3.03;;;;;;;19.38;68.58;101852.09;4990224;28;20025;-69
2023/08/17 04:25:37;;;;;;;4.63;2.88;;;;;;;19.35;69.54;101857.66;4987537;28;20043;-68
2023/08/17 04:28:03;;;;;;;7.57;2.83;;;;;;;19.32;69.13;101854.31;4991159;28;20034;-67
2023/08/17 04:30:28;;;;;;;4.47;2.80;;;;;;;19.27;68.96;101859.09;4989289;28;20056;-68
2023/08/17 04:32:53;;;;;;;6.60;2.95;;;;;;;19.23;67.96;101855.72;4992769;28;20064;-68
2023/08/17 04:35:19;;;;;;;5.43;3.10;;;;;;;19.19;69.38;101861.38;4993082;28;20097;-68
2023/08/17 04:37:45;;;;;;;6.50;3.00;;;;;;;19.13;68.88;101861.75;4984718;28;20026;-68
2023/08/17 04:40:11;;;;;;;5.45;2.80;;;;;;;19.07;68.72;101860.25;4990376;28;20417;-68
2023/08/17 04:42:36;;;;;;;6.38;3.80;;;;;;;19.02;70.22;101855.16;4988084;28;20591;-68
2023/08/17 04:45:02;;;;;;;4.72;2.97;;;;;;;19.02;69.29;101851.63;4987744;28;20105;-68
2023/08/17 04:47:28;;;;;;;5.57;2.90;;;;;;;19.01;69.46;101855.28;4976236;28;20359;-68
2023/08/17 04:49:53;;;;;;;5.40;3.15;;;;;;;19.01;70.36;101856.13;5004105;28;20027;-68
2023/08/17 04:52:18;;;;;;;4.22;3.03;;;;;;;19.03;69.27;101861.44;4994064;28;20029;-68
2023/08/17 04:54:44;;;;;;;7.43;3.10;;;;;;;19.05;68.54;101860.38;4992758;28;20023;-68
2023/08/17 04:57:09;;;;;;;4.95;2.80;;;;;;;19.03;69.31;101850.72;4998735;28;20551;-68
2023/08/17 04:59:36;;;;;;;8.65;3.30;;;;;;;19.05;69.96;101860.38;4998965;28;20191;-68
2023/08/17 05:02:01;;;;;;;5.60;3.20;;;;;;;19.20;68.84;101853.22;4991179;28;20481;-67
2023/08/17 05:04:26;;;;;;;8.15;2.75;;;;;;;19.30;69.10;101853.53;5000770;28;20026;-68
2023/08/17 05:06:51;;;;;;;4.40;3.10;;;;;;;19.13;68.56;101851.00;4995625;28;20046;-68
2023/08/17 05:09:17;;;;;;;6.93;2.90;;;;;;;19.14;68.28;101852.72;4996427;28;20038;-69
2023/08/17 05:11:42;;;;;;;5.85;2.80;;;;;;;19.18;68.28;101846.25;4994737;28;20025;-68
2023/08/17 05:14:07;;;;;;;5.43;3.17;;;;;;;19.16;69.15;101848.13;4997412;28;20120;-68
2023/08/17 05:16:33;;;;;;;5.20;3.00;;;;;;;19.16;68.14;101849.00;4998453;28;20633;-68
2023/08/17 05:18:59;;;;;;;7.32;3.60;;;;;;;19.17;68.82;101848.06;4991128;28;20065;-68
2023/08/17 05:21:24;;;;;;;6.30;3.22;;;;;;;19.21;68.62;101849.59;4987451;28;20125;-68
2023/08/17 05:23:50;;;;;;;3.72;3.03;;;;;;;19.26;68.79;101850.19;4989936;28;20449;-68
2023/08/17 05:26:15;;;;;;;6.63;3.08;;;;;;;19.28;69.54;101855.44;4993092;28;20093;-68
2023/08/17 05:28:41;;;;;;;5.18;3.15;;;;;;;19.30;68.84;101858.88;4991071;28;20105;-68
2023/08/17 05:31:07;;;;;;;5.70;2.90;;;;;;;19.33;67.80;101859.56;4994000;28;20036;-68
2023/08/17 05:33:32;;;;;;;4.72;3.08;;;;;;;19.33;68.08;101854.19;4992083;28;20027;-68
2023/08/17 05:35:57;;;;;;;5.95;2.75;;;;;;;19.34;67.99;101849.69;4993651;28;20022;-68
2023/08/17 05:38:23;;;;;;;5.25;3.10;;;;;;;19.45;68.35;101849.94;4993032;28;20038;-69
2023/08/17 05:40:54;;;;;;;6.65;2.80;;;;;;;19.63;66.93;101850.63;4992509;28;20030;-68
2023/08/17 05:43:20;;;;;;;8.98;3.30;;;;;;;19.69;66.90;101852.09;4993085;28;20085;-68
2023/08/17 05:45:45;;;;;;;8.95;2.75;;;;;;;19.72;68.23;101847.34;4990054;28;20050;-68
2023/08/17 05:48:10;;;;;;;3.63;2.90;;;;;;;19.79;66.50;101863.97;5001152;28;20032;-71
2023/08/17 05:50:35;;;;;;;6.72;2.67;;;;;;;19.86;66.67;101862.59;4990626;28;20040;-71
2023/08/17 05:53:01;;;;;;;6.20;3.00;;;;;;;19.91;67.53;101859.63;4989055;28;20688;-71
2023/08/17 05:55:26;;;;;;;4.18;2.75;;;;;;;19.94;66.82;101862.13;4976978;28;20122;-71
2023/08/17 05:57:51;;;;;;;4.10;2.70;;;;;;;19.98;67.65;101860.97;4992886;28;20053;-71
2023/08/17 06:00:17;;;;;;;4.97;2.80;;;;;;;19.97;65.48;101865.47;4996439;28;20026;-72
2023/08/17 06:02:42;;;;;;;5.55;2.95;;;;;;;19.97;66.74;101864.63;4998070;28;20033;-71
2023/08/17 06:05:08;;;;;;;3.85;2.83;;;;;;;19.96;66.87;101863.78;4997363;28;20501;-71
2023/08/17 06:07:34;;;;;;;6.75;3.03;;;;;;;19.95;67.62;101875.44;4996963;28;20097;-71
2023/08/17 06:09:59;;;;;;;5.60;2.95;;;;;;;19.96;66.79;101871.81;4986351;28;20549;-71
2023/08/17 06:12:25;;;;;;;5.95;3.30;;;;;;;19.96;67.92;101870.94;4988949;28;20034;-71
2023/08/17 06:14:50;;;;;;;4.40;2.78;;;;;;;19.86;65.64;101879.59;4992192;28;20026;-71
2023/08/17 06:17:15;;;;;;;4.68;3.22;;;;;;;19.85;67.24;101882.34;4993844;28;20130;-71
2023/08/17 06:19:41;;;;;;;5.05;2.42;;;;;;;19.85;66.35;101880.53;5000814;28;20064;-71
2023/08/17 06:22:07;;;;;;;6.95;3.30;;;;;;;19.87;68.26;101878.63;4970459;28;20065;-71
2023/08/17 06:24:32;;;;;;;7.15;2.95;;;;;;;19.99;66.01;101873.44;4994426;28;20050;-71
2023/08/17 06:26:57;;;;;;;3.72;2.83;;;;;;;20.11;67.88;101872.66;4994985;28;20441;-71
2023/08/17 06:29:22;;;;;;;9.75;3.22;;;;;;;20.22;66.58;101874.66;4990497;28;20038;-71
2023/08/17 06:31:48;;;;;;;8.55;3.30;;;;;;;20.25;66.12;101874.47;4992430;28;20026;-71
2023/08/17 06:34:13;;;;;;;5.50;3.17;;;;;;;20.34;66.00;101880.09;4990762;28;20026;-71
2023/08/17 06:36:39;;;;;;;5.05;2.97;;;;;;;20.48;65.31;101875.69;4995239;28;20061;-71
2023/08/17 06:39:04;;;;;;;7.47;3.10;;;;;;;20.62;64.96;101871.13;4988687;28;20542;-72
2023/08/17 06:41:30;;;;;;;6.38;3.50;;;;;;;20.79;64.25;101874.50;4990996;28;20026;-72
2023/08/17 06:43:55;;;;;;;4.53;3.35;;;;;;;20.93;64.61;101882.50;4989072;28;20057;-72
2023/08/17 06:46:20;;;;;;;7.53;3.25;;;;;;;21.01;65.98;101873.94;4995504;28;20455;-72
2023/08/17 06:48:46;;;;;;;8.40;3.30;;;;;;;21.08;62.83;101869.88;4988337;28;20057;-72
2023/08/17 06:51:11;;;;;;;5.00;3.10;;;;;;;21.12;62.55;101874.94;4989885;28;20069;-72
2023/08/17 06:53:36;;;;;;;6.03;3.63;;;;;;;21.17;64.73;101868.38;4990617;28;20432;-72
2023/08/17 06:56:01;;;;;;;4.90;3.30;;;;;;;21.19;63.79;101874.53;4987748;28;20026;-72
2023/08/17 06:58:27;;;;;;;7.32;3.33;;;;;;;21.18;62.85;101870.97;4977486;28;20034;-72
2023/08/17 07:00:52;;;;;;;7.32;3.45;;;;;;;21.13;62.98;101873.97;4979948;28;20448;-72
2023/08/17 07:03:17;;;;;;;5.75;3.25;;;;;;;21.04;62.63;101874.59;4990313;28;20030;-72
2023/08/17 07:05:43;;;;;;;7.82;3.20;;;;;;;21.00;63.02;101885.66;4999862;28;20065;-72
2023/08/17 07:08:09;;;;;;;5.95;3.15;;;;;;;21.02;64.56;101892.66;4994651;28;20397;-72
2023/08/17 07:10:34;;;;;;;6.70;3.50;;;;;;;21.08;63.78;101880.63;4996642;28;20033;-72
2023/08/17 07:13:03;;;;;;;5.65;2.75;;;;;;;21.09;63.22;101879.66;4987822;28;20121;-72
2023/08/17 07:15:28;;;;;;;7.38;3.30;;;;;;;21.15;65.62;101881.94;4988136;28;20568;-72
2023/08/17 07:17:53;;;;;;;4.03;3.05;;;;;;;21.20;63.31;101876.25;4990351;28;20037;-72
2023/08/17 07:20:19;;;;;;;4.28;2.80;;;;;;;21.16;62.90;101878.25;4993571;28;20445;-72
2023/08/17 07:22:44;;;;;;;5.70;3.17;;;;;;;21.18;62.76;101884.41;4993328;28;20029;-72
2023/08/17 07:25:09;;;;;;;5.20;3.20;;;;;;;21.22;62.62;101885.09;4991791;28;20072;-73
2023/08/17 07:27:35;;;;;;;7.25;3.30;;;;;;;21.31;62.18;101884.44;4990715;28;20034;-72
2023/08/17 07:30:00;;;;;;;5.47;3.40;;;;;;;21.34;63.01;101884.25;4987315;28;20453;-73
2023/08/17 07:32:26;;;;;;;5.80;3.65;;;;;;;21.36;62.01;101882.34;4992391;28;20078;-72
2023/08/17 07:34:51;;;;;;;6.15;3.45;;;;;;;21.52;62.94;101892.88;4989460;28;20034;-72
2023/08/17 07:37:16;;;;;;;7.70;3.80;;;;;;;21.67;61.73;101883.72;4987627;28;20033;-72
2023/08/17 07:39:42;;;;;;;5.32;3.33;;;;;;;21.81;60.86;101883.63;4991617;28;20076;-72
2023/08/17 07:42:07;;;;;;;4.72;3.25;;;;;;;21.94;60.51;101883.59;4990883;28;20030;-72
2023/08/17 07:44:33;;;;;;;5.25;3.25;;;;;;;22.00;59.22;101887.69;4989330;28;20371;-72
2023/08/17 07:46:59;;;;;;;5.32;3.00;;;;;;;22.00;59.31;101891.25;4997298;28;20026;-72
2023/08/17 07:49:25;;;;;;;4.60;3.10;;;;;;;22.07;59.36;101888.97;4991675;28;20064;-72
2023/08/17 07:51:50;;;;;;;5.78;3.15;;;;;;;22.06;59.36;101889.97;4993047;28;20026;-72
2023/08/17 07:54:15;;;;;;;7.10;3.33;;;;;;;22.02;60.13;101891.16;4999589;28;20075;-72
2023/08/17 07:56:41;;;;;;;6.25;2.67;;;;;;;21.95;60.76;101889.84;4992133;28;20022;-72
2023/08/17 07:59:06;;;;;;;6.63;2.88;;;;;;;21.85;60.33;101886.97;4999796;28;20052;-72
2023/08/17 08:01:31;;;;;;;7.70;3.80;;;;;;;21.84;61.08;101896.88;4987955;28;20038;-72
2023/08/17 08:03:57;;;;;;;5.50;3.22;;;;;;;21.89;60.33;101896.53;4973010;28;20517;-72
2023/08/17 08:06:22;;;;;;;5.32;3.55;;;;;;;21.97;61.58;101899.56;4991100;28;20054;-72
2023/08/17 08:08:48;;;;;;;3.92;3.38;;;;;;;22.06;60.13;101898.03;4992121;28;20134;-72
2023/08/17 08:11:13;;;;;;;8.27;3.75;;;;;;;22.17;59.15;101891.91;4997762;28;20105;-72
2023/08/17 08:13:38;;;;;;;6.28;3.58;;;;;;;22.33;59.41;101887.09;4989168;28;20019;-72
2023/08/17 08:16:04;;;;;;;4.75;2.97;;;;;;;22.48;59.56;101893.22;4990601;28;20045;-72
2023/08/17 08:18:29;;;;;;;6.47;3.80;;;;;;;22.42;59.11;101886.44;4990190;28;20271;-72
2023/08/17 08:20:54;;;;;;;7.60;3.25;;;;;;;22.38;58.95;101893.00;4992857;28;20026;-72
2023/08/17 08:23:19;;;;;;;5.65;3.60;;;;;;;22.26;60.35;101889.41;4989529;28;20433;-72
2023/08/17 08:25:45;;;;;;;4.70;2.97;;;;;;;22.18;59.61;101896.31;4991557;28;20057;-73
2023/08/17 08:28:10;;;;;;;5.43;3.50;;;;;;;22.02;59.67;101894.69;4990288;28;20019;-72
2023/08/17 08:30:35;;;;;;;5.32;3.55;;;;;;;21.84;61.18;101891.47;4991308;28;20493;-72
2023/08/17 08:33:01;;;;;;;7.45;3.70;;;;;;;21.75;60.28;101897.50;4992808;28;20073;-72
2023/08/17 08:35:27;;;;;;;5.60;3.55;;;;;;;21.70;60.33;101902.38;4998863;28;20026;-72
2023/08/17 08:37:53;;;;;;;4.80;3.35;;;;;;;21.68;60.85;101906.13;4989992;28;20491;-70
2023/08/17 08:40:20;;;;;;;9.02;3.55;;;;;;;21.60;60.82;101901.28;4985652;28;20030;-73
2023/08/17 08:42:45;;;;;;;5.82;3.53;;;;;;;21.57;60.91;101899.66;4988584;28;20026;-73
2023/08/17 08:45:10;;;;;;;7.43;3.70;;;;;;;21.51;60.92;101901.94;4988055;28;20421;-72
2023/08/17 08:47:37;;;;;;;9.32;3.90;;;;;;;21.50;61.68;101903.75;4983580;28;20062;-73
2023/08/17 08:50:04;;;;;;;9.38;3.55;;;;;;;21.49;61.90;101906.53;4984368;28;20026;-73
2023/08/17 08:52:39;;;;;;;7.15;3.90;;;;;;;21.49;62.19;101898.47;4984745;28;20091;-73
2023/08/17 08:55:15;;;;;;;11.02;3.80;;;;;;;21.46;61.45;101890.63;4986742;28;20046;-72
2023/08/17 08:57:41;;;;;;;5.85;3.35;;;;;;;21.44;62.07;101895.25;4989765;28;20126;-72
2023/08/17 09:00:07;;;;;;;14.25;4.57;;;;;;;21.47;62.29;101893.19;4989506;28;20477;-72
2023/08/17 09:02:34;;;;;;;7.50;4.00;;;;;;;21.46;61.34;101887.94;4972116;28;20400;-73
2023/08/17 09:05:01;;;;;;;7.07;4.60;;;;;;;21.46;62.22;101888.78;4980989;28;20041;-72
2023/08/17 09:07:29;;;;;;;7.80;4.30;;;;;;;21.50;62.00;101884.94;4987453;28;20077;-72
2023/08/17 09:09:55;;;;;;;5.97;4.15;;;;;;;21.52;61.72;101876.75;4992654;28;20057;-72
2023/08/17 09:12:21;;;;;;;8.57;4.47;;;;;;;21.45;62.35;101883.50;4988419;28;20028;-73
2023/08/17 09:14:47;;;;;;;11.85;4.35;;;;;;;21.45;62.47;101875.44;4960763;28;20149;-72
2023/08/17 09:17:12;;;;;;;8.38;4.47;;;;;;;21.50;62.18;101871.47;4981059;28;20161;-68
2023/08/17 09:19:37;;;;;;;8.18;4.60;;;;;;;21.50;61.67;101887.63;4982831;28;20022;-69
2023/08/17 09:22:02;;;;;;;12.20;5.38;;;;;;;21.44;62.79;101882.63;4981679;28;20145;-69
2023/08/17 09:24:37;;;;;;;12.85;5.13;;;;;;;21.48;61.89;101881.47;4985534;28;20033;-69
2023/08/17 09:27:03;;;;;;;13.50;5.43;;;;;;;21.49;62.18;101885.00;4964114;28;20037;-70
2023/08/17 09:29:33;;;;;;;7.72;4.68;;;;;;;21.57;62.59;101882.66;4985332;28;20041;-69
2023/08/17 09:32:04;;;;;;;9.60;5.32;;;;;;;21.70;61.89;101883.53;4985084;28;20356;-68
2023/08/17 09:34:31;;;;;;;10.35;5.90;;;;;;;21.74;62.06;101879.66;4994647;28;21077;-69
2023/08/17 09:37:02;;;;;;;8.85;5.60;;;;;;;21.76;62.13;101879.53;4992961;28;20073;-69
2023/08/17 09:39:27;;;;;;;10.52;5.50;;;;;;;21.85;61.93;101877.03;4987987;28;20038;-70
2023/08/17 09:41:54;;;;;;;11.00;5.47;;;;;;;21.98;61.66;101892.34;4988989;28;20038;-70
2023/08/17 09:44:20;;;;;;;7.57;6.10;;;;;;;22.05;60.89;101878.31;4992154;28;20493;-68
2023/08/17 09:46:46;;;;;;;13.65;5.78;;;;;;;22.17;59.60;101875.75;4979893;28;20038;-68
2023/08/17 09:49:11;;;;;;;10.82;6.00;;;;;;;22.18;60.78;101875.63;4981835;28;20038;-69
2023/08/17 09:51:37;;;;;;;10.10;6.20;;;;;;;22.13;61.00;101869.72;4977250;28;20035;-70
2023/08/17 09:54:02;;;;;;;9.20;6.50;;;;;;;22.05;60.68;101875.59;4967850;28;20752;-69
2023/08/17 09:56:28;;;;;;;8.48;5.70;;;;;;;22.00;61.03;101871.53;4987716;28;20067;-69
2023/08/17 09:58:53;;;;;;;14.23;6.20;;;;;;;21.99;61.42;101869.81;4994025;28;20642;-68
2023/08/17 10:01:21;;;;;;;16.00;7.60;;;;;;;21.97;61.52;101872.63;4987886;28;20041;-69
2023/08/17 10:03:46;;;;;;;12.57;6.50;;;;;;;21.89;61.40;101865.09;4991307;28;20033;-69
2023/08/17 10:06:13;;;;;;;9.38;6.05;;;;;;;21.83;61.57;101860.16;4994930;28;20421;-69
2023/08/17 10:08:51;;;;;;;9.68;6.30;;;;;;;21.95;61.18;101865.63;4991789;28;20540;-68
2023/08/17 10:11:19;;;;;;;13.75;6.57;;;;;;;21.83;62.60;101860.16;4991471;28;20477;-69
2023/08/17 10:14:02;;;;;;;11.48;6.55;;;;;;;21.90;62.63;101857.88;4986131;28;20578;-69
2023/08/17 10:16:52;;;;;;;12.38;6.63;;;;;;;21.98;61.88;101860.03;4973692;28;20041;-73
2023/08/17 10:19:37;;;;;;;10.30;6.75;;;;;;;21.97;61.85;101851.09;4987778;28;20087;-73
2023/08/17 10:22:16;;;;;;;9.13;6.38;;;;;;;22.02;62.06;101853.44;4984263;28;20512;-72
2023/08/17 10:24:43;;;;;;;14.13;6.70;;;;;;;22.04;61.74;101840.72;4994233;28;20477;-72
2023/08/17 10:27:09;;;;;;;10.30;6.72;;;;;;;22.12;62.24;101841.06;4989555;28;20048;-73
2023/08/17 10:29:36;;;;;;;14.05;7.32;;;;;;;22.24;61.69;101842.84;4996442;28;20042;-72
2023/08/17 10:32:02;;;;;;;13.07;7.35;;;;;;;22.37;61.38;101835.56;4987367;28;20026;-73
2023/08/17 10:34:28;;;;;;;12.63;7.45;;;;;;;22.43;61.88;101834.28;4991264;28;20034;-73
2023/08/17 10:36:57;;;;;;;14.88;7.90;;;;;;;22.47;61.74;101833.06;4985203;28;20045;-73
2023/08/17 10:39:30;;;;;;;14.50;7.03;;;;;;;22.53;61.38;101842.53;4980518;28;20489;-74
2023/08/17 10:41:56;;;;;;;11.27;6.78;;;;;;;22.55;60.51;101844.13;4985663;28;20489;-74
2023/08/17 10:44:36;;;;;;;8.85;6.70;;;;;;;22.71;60.41;101838.47;4985216;28;20423;-72
2023/08/17 10:47:22;;;;;;;11.98;7.10;;;;;;;22.68;60.57;101838.69;4985657;28;20565;-74
2023/08/17 10:49:49;;;;;;;10.63;7.05;;;;;;;22.67;60.88;101847.75;4992032;28;20037;-74
2023/08/17 10:52:14;;;;;;;11.43;7.10;;;;;;;22.72;61.94;101845.56;4991870;28;20080;-73
2023/08/17 10:54:41;;;;;;;13.23;7.35;;;;;;;22.76;60.32;101836.28;4967884;28;20022;-73
2023/08/17 10:57:33;;;;;;;13.45;7.70;;;;;;;22.81;60.82;101839.47;4987943;28;20386;-73
2023/08/17 11:00:13;;;;;;;9.95;6.88;;;;;;;22.81;60.03;101838.63;4989281;28;20018;-72
2023/08/17 11:02:38;;;;;;;11.75;7.43;;;;;;;22.78;59.85;101844.25;4982393;28;20030;-73
2023/08/17 11:05:04;;;;;;;13.93;8.40;;;;;;;22.84;59.73;101832.97;4986736;28;20049;-73
2023/08/17 11:07:43;;;;;;;13.65;7.60;;;;;;;22.91;60.54;101836.97;4977094;28;20038;-75
2023/08/17 11:10:29;;;;;;;13.73;7.80;;;;;;;23.04;60.55;101842.28;4971176;28;20481;-73
2023/08/17 11:12:59;;;;;;;13.43;7.82;;;;;;;22.81;60.37;101844.03;4996678;28;20069;-73
2023/08/17 11:15:25;;;;;;;9.50;7.15;;;;;;;22.74;60.97;101848.13;4986416;28;20105;-73
2023/08/17 11:17:50;;;;;;;14.40;7.50;;;;;;;22.70;60.73;101854.72;4997628;28;20027;-74
2023/08/17 11:20:16;;;;;;;11.40;7.78;;;;;;;22.71;61.02;101846.56;4988483;28;20030;-73
2023/08/17 11:22:41;;;;;;;11.77;6.80;;;;;;;22.72;60.66;101850.09;4992343;28;20386;-74